Terminal Aerodrome Forecast
Issued by NWS Atlanta, GA

Home | Current Version | Previous Version | Text Only | Print | Product List | Glossary On
Versions: 1 2 3 4 5 6 7 8 9 10 11 12 13 14 15 16 17 18 19 20 21 22 23 24 25 26
000
FTUS42 KFFC 041726
TAFAHN
TAF
KAHN 041726Z 0418/0518 19005KT P6SM SCT060
     FM050000 13002KT P6SM FEW070
     FM051200 10003KT P6SM FEW250
     FM051700 13006KT P6SM SCT060=

USA.gov is the U.S. government's official web portal to all federal, state and local government web resources and services.